Time;durP1;ratioP1;P1;durP2;ratioP2;P2;SDS_P1;SDS_P2;PMS_P1;PMS_P2;Temp;Humidity;BMP_temperature;BMP_pressure;BME280_temperature;BME280_humidity;BME280_pressure;Samples;Min_cycle;Max_cycle;Signal;HPM_P1;HPM_P2
2022/01/09 00:01:35;;;;;;;;;;;8.60;63.00;;;;;;4994771;28;19921;-90
2022/01/09 00:04:01;;;;;;;;;;;8.60;63.00;;;;;;4999815;28;19910;-91
2022/01/09 00:06:26;;;;;;;;;;;8.70;62.90;;;;;;4995670;28;20463;-91
2022/01/09 00:08:52;;;;;;;;;;;8.70;62.90;;;;;;4997270;28;19937;-91
2022/01/09 00:11:25;;;;;;;;;;;8.70;62.90;;;;;;5011138;28;20452;-90
2022/01/09 00:13:50;;;;;;;;;;;8.80;62.90;;;;;;5008626;28;20349;-91
2022/01/09 00:16:16;;;;;;;;;;;8.80;62.80;;;;;;4998614;28;20001;-90
2022/01/09 00:18:42;;;;;;;;;;;8.80;62.90;;;;;;5005779;28;19949;-90
2022/01/09 00:21:08;;;;;;;;;;;8.80;62.90;;;;;;4998931;28;19925;-90
2022/01/09 00:23:34;;;;;;;;;;;8.80;62.80;;;;;;5005323;28;19910;-91
2022/01/09 00:26:00;;;;;;;;;;;8.80;62.90;;;;;;5003245;28;19998;-91
2022/01/09 00:28:26;;;;;;;;;;;8.80;62.90;;;;;;4978298;28;19926;-92
2022/01/09 00:30:51;;;;;;;;;;;8.80;63.00;;;;;;4996318;28;19922;-91
2022/01/09 00:33:21;;;;;;;;;;;8.90;63.00;;;;;;4979799;28;19918;-90
2022/01/09 00:35:46;;;;;;;;;;;8.90;63.00;;;;;;4995278;28;19914;-91
2022/01/09 00:38:12;;;;;;;;;;;8.80;63.00;;;;;;4996249;28;19929;-90
2022/01/09 00:40:37;;;;;;;;;;;8.80;63.10;;;;;;4997668;28;19910;-90
2022/01/09 00:43:09;;;;;;;;;;;8.80;63.10;;;;;;4995463;28;19921;-90
2022/01/09 00:45:35;;;;;;;;;;;8.80;63.10;;;;;;4979101;28;19914;-90
2022/01/09 00:48:01;;;;;;;;;;;8.80;63.10;;;;;;4977451;28;19914;-90
2022/01/09 00:50:27;;;;;;;;;;;8.80;63.10;;;;;;5001477;28;19960;-90
2022/01/09 00:52:52;;;;;;;;;;;8.90;63.10;;;;;;4982680;28;19922;-90
2022/01/09 00:55:18;;;;;;;;;;;8.90;63.10;;;;;;5002717;28;19934;-90
2022/01/09 00:57:49;;;;;;;;;;;8.90;63.20;;;;;;4995761;28;19945;-90
2022/01/09 01:00:18;;;;;;;;;;;9.00;63.20;;;;;;4992408;28;19921;-90
2022/01/09 01:02:48;;;;;;;;;;;9.00;63.20;;;;;;4974992;28;19922;-90
2022/01/09 01:05:13;;;;;;;;;;;9.00;63.20;;;;;;5006187;28;19941;-90
2022/01/09 01:07:39;;;;;;;;;;;9.00;63.20;;;;;;4995559;28;19928;-90
2022/01/09 01:10:04;;;;;;;;;;;9.00;63.20;;;;;;4995166;28;19957;-91
2022/01/09 01:12:30;;;;;;;;;;;8.90;63.30;;;;;;4976351;28;19964;-90
2022/01/09 01:14:56;;;;;;;;;;;8.90;63.30;;;;;;4976643;28;19914;-90
2022/01/09 01:17:22;;;;;;;;;;;8.90;63.30;;;;;;4978181;28;20001;-90
2022/01/09 01:19:50;;;;;;;;;;;9.00;63.30;;;;;;4977383;28;19914;-89
2022/01/09 01:22:15;;;;;;;;;;;8.90;63.30;;;;;;4983029;28;19918;-89
2022/01/09 01:24:41;;;;;;;;;;;9.00;63.30;;;;;;4977412;28;20003;-89
2022/01/09 01:27:07;;;;;;;;;;;8.90;63.30;;;;;;4995438;28;19933;-89
2022/01/09 01:29:34;;;;;;;;;;;8.90;63.20;;;;;;5003969;28;20356;-90
2022/01/09 01:31:59;;;;;;;;;;;9.00;63.30;;;;;;4976475;28;19940;-89
2022/01/09 01:34:25;;;;;;;;;;;9.00;63.30;;;;;;5006941;28;19945;-90
2022/01/09 01:36:51;;;;;;;;;;;8.90;63.30;;;;;;4962938;28;19933;-89
2022/01/09 01:39:17;;;;;;;;;;;8.90;63.40;;;;;;4967641;28;20107;-90
2022/01/09 01:41:42;;;;;;;;;;;9.00;63.30;;;;;;4974721;28;19929;-90
2022/01/09 01:44:09;;;;;;;;;;;8.90;63.40;;;;;;4975100;28;20432;-90
2022/01/09 01:46:35;;;;;;;;;;;9.00;63.40;;;;;;4970247;28;19922;-90
2022/01/09 01:49:00;;;;;;;;;;;9.00;63.40;;;;;;4999922;28;19989;-90
2022/01/09 01:51:26;;;;;;;;;;;9.00;63.40;;;;;;4974464;28;19953;-90
2022/01/09 01:53:54;;;;;;;;;;;9.00;63.40;;;;;;4968763;28;19996;-90
2022/01/09 01:56:20;;;;;;;;;;;9.00;63.40;;;;;;4964819;28;20225;-90
2022/01/09 01:58:47;;;;;;;;;;;9.00;63.40;;;;;;4966627;28;19925;-90
2022/01/09 02:01:12;;;;;;;;;;;9.00;63.40;;;;;;4965582;28;19922;-90
2022/01/09 02:03:38;;;;;;;;;;;9.00;63.40;;;;;;4977929;28;20465;-90
2022/01/09 02:06:04;;;;;;;;;;;9.00;63.50;;;;;;4961403;28;20369;-90
2022/01/09 02:08:30;;;;;;;;;;;9.00;63.50;;;;;;4975984;28;19945;-90
2022/01/09 02:10:56;;;;;;;;;;;9.00;63.60;;;;;;4985141;28;20545;-90
2022/01/09 02:13:21;;;;;;;;;;;9.00;63.60;;;;;;4979897;28;19945;-90
2022/01/09 02:15:48;;;;;;;;;;;9.00;63.60;;;;;;4981354;28;20055;-90
2022/01/09 02:18:17;;;;;;;;;;;9.10;63.60;;;;;;4965012;28;19914;-90
2022/01/09 02:20:43;;;;;;;;;;;9.00;63.60;;;;;;4959534;28;19941;-90
2022/01/09 02:23:10;;;;;;;;;;;9.00;63.70;;;;;;4979275;28;20012;-90
2022/01/09 02:25:36;;;;;;;;;;;9.10;63.70;;;;;;4962684;28;20735;-90
2022/01/09 02:28:02;;;;;;;;;;;9.10;63.70;;;;;;4960742;28;20450;-89
2022/01/09 02:30:29;;;;;;;;;;;9.10;63.70;;;;;;4961530;28;19925;-90
2022/01/09 02:32:54;;;;;;;;;;;9.10;63.60;;;;;;4983355;28;19918;-91
2022/01/09 02:35:23;;;;;;;;;;;9.10;63.70;;;;;;4980421;28;19918;-91
2022/01/09 02:37:49;;;;;;;;;;;9.10;63.60;;;;;;5004629;28;19981;-90
2022/01/09 02:40:15;;;;;;;;;;;9.10;63.60;;;;;;4977824;28;19956;-89
2022/01/09 02:42:40;;;;;;;;;;;9.20;63.60;;;;;;4981680;28;19941;-91
2022/01/09 02:45:06;;;;;;;;;;;9.10;63.60;;;;;;4988197;28;19906;-91
2022/01/09 02:47:33;;;;;;;;;;;9.20;63.60;;;;;;4981706;28;19960;-91
2022/01/09 02:50:10;;;;;;;;;;;9.20;63.50;;;;;;4996496;28;19925;-91
2022/01/09 02:52:48;;;;;;;;;;;9.30;63.50;;;;;;5003059;28;20381;-91
2022/01/09 02:55:14;;;;;;;;;;;9.30;63.50;;;;;;4963643;28;19918;-90
2022/01/09 02:57:41;;;;;;;;;;;9.30;63.40;;;;;;4969920;28;19922;-89
2022/01/09 03:00:08;;;;;;;;;;;9.30;63.40;;;;;;4979877;28;19926;-91
2022/01/09 03:02:34;;;;;;;;;;;9.30;63.40;;;;;;4964626;28;19977;-89
2022/01/09 03:04:59;;;;;;;;;;;9.40;63.40;;;;;;4988814;28;19921;-89
2022/01/09 03:07:25;;;;;;;;;;;9.40;63.30;;;;;;5006804;28;19925;-89
2022/01/09 03:09:50;;;;;;;;;;;9.40;63.30;;;;;;4975413;28;19930;-89
2022/01/09 03:12:17;;;;;;;;;;;9.50;63.40;;;;;;4990567;28;19953;-89
2022/01/09 03:14:42;;;;;;;;;;;9.50;63.20;;;;;;4977926;28;19967;-89
2022/01/09 03:17:08;;;;;;;;;;;9.50;63.20;;;;;;4979007;28;19921;-89
2022/01/09 03:19:33;;;;;;;;;;;9.50;63.20;;;;;;5001500;28;20000;-89
2022/01/09 03:21:59;;;;;;;;;;;9.50;63.30;;;;;;4980886;28;19922;-89
2022/01/09 03:24:24;;;;;;;;;;;9.60;63.20;;;;;;4959805;28;20305;-89
2022/01/09 03:26:50;;;;;;;;;;;9.50;63.20;;;;;;4966196;28;19922;-89
2022/01/09 03:29:16;;;;;;;;;;;9.50;63.20;;;;;;4973972;28;20483;-89
2022/01/09 03:31:41;;;;;;;;;;;9.60;63.20;;;;;;4965741;28;20299;-90
2022/01/09 03:34:07;;;;;;;;;;;9.60;63.20;;;;;;4970953;28;19925;-89
2022/01/09 03:36:33;;;;;;;;;;;9.60;63.30;;;;;;4984462;28;19918;-90
2022/01/09 03:38:58;;;;;;;;;;;9.50;63.20;;;;;;4971313;28;20013;-89
2022/01/09 03:41:24;;;;;;;;;;;9.50;63.30;;;;;;4990376;28;19922;-89
2022/01/09 03:43:50;;;;;;;;;;;9.50;63.40;;;;;;4986570;28;19914;-89
2022/01/09 03:46:15;;;;;;;;;;;9.50;63.40;;;;;;4980057;28;19918;-90
2022/01/09 03:48:41;;;;;;;;;;;9.50;63.50;;;;;;5002561;28;19918;-90
2022/01/09 03:51:07;;;;;;;;;;;9.50;63.40;;;;;;4993099;28;20010;-89
2022/01/09 03:53:32;;;;;;;;;;;9.50;63.30;;;;;;4988034;28;19917;-90
2022/01/09 03:55:58;;;;;;;;;;;9.40;63.30;;;;;;4978890;28;19917;-89
2022/01/09 03:58:24;;;;;;;;;;;9.40;63.30;;;;;;4975309;28;19918;-90
2022/01/09 04:00:50;;;;;;;;;;;9.30;63.40;;;;;;4994247;28;19920;-90
2022/01/09 04:03:15;;;;;;;;;;;9.30;63.40;;;;;;4958981;28;19959;-90
2022/01/09 04:05:41;;;;;;;;;;;9.30;63.50;;;;;;4986295;28;20411;-90
2022/01/09 04:08:07;;;;;;;;;;;9.30;63.50;;;;;;4958058;28;19964;-90
2022/01/09 04:10:40;;;;;;;;;;;9.30;63.40;;;;;;4973936;28;19964;-90
2022/01/09 04:13:05;;;;;;;;;;;9.30;63.50;;;;;;4967202;28;19922;-90
2022/01/09 04:15:31;;;;;;;;;;;9.30;63.50;;;;;;4981255;28;19917;-90
2022/01/09 04:17:57;;;;;;;;;;;9.30;63.40;;;;;;4973089;28;19954;-89
2022/01/09 04:20:24;;;;;;;;;;;9.30;63.50;;;;;;4970886;28;19941;-89
2022/01/09 04:22:50;;;;;;;;;;;9.30;63.60;;;;;;4967071;28;19922;-90
2022/01/09 04:25:16;;;;;;;;;;;9.30;63.60;;;;;;4969453;28;19914;-89
2022/01/09 04:27:42;;;;;;;;;;;9.20;63.50;;;;;;4976164;28;19922;-89
2022/01/09 04:30:08;;;;;;;;;;;9.30;63.50;;;;;;4971310;28;19976;-89
2022/01/09 04:32:34;;;;;;;;;;;9.30;63.40;;;;;;4995653;28;20328;-90
2022/01/09 04:34:59;;;;;;;;;;;9.30;63.50;;;;;;4981974;28;19925;-90
2022/01/09 04:37:25;;;;;;;;;;;9.30;63.40;;;;;;4970384;28;20001;-90
2022/01/09 04:39:52;;;;;;;;;;;9.30;63.40;;;;;;4996603;28;19917;-90
2022/01/09 04:42:19;;;;;;;;;;;9.40;63.30;;;;;;4982182;28;19945;-90
2022/01/09 04:44:45;;;;;;;;;;;9.30;63.30;;;;;;4979447;28;19989;-90
2022/01/09 04:47:14;;;;;;;;;;;9.30;63.50;;;;;;4976162;28;19964;-90
2022/01/09 04:49:43;;;;;;;;;;;9.30;63.30;;;;;;4978202;28;19926;-90
2022/01/09 04:52:13;;;;;;;;;;;9.30;63.50;;;;;;5031400;23;20890;-89
2022/01/09 04:54:39;;;;;;;;;;;9.30;63.40;;;;;;5037009;28;19921;-90
2022/01/09 04:57:04;;;;;;;;;;;9.30;63.50;;;;;;5011794;28;19936;-90
2022/01/09 04:59:30;;;;;;;;;;;9.30;63.50;;;;;;5005089;28;20377;-90
2022/01/09 05:01:56;;;;;;;;;;;9.40;63.50;;;;;;5016917;28;19956;-90
2022/01/09 05:04:22;;;;;;;;;;;9.40;63.60;;;;;;5015256;28;20008;-90
2022/01/09 05:06:47;;;;;;;;;;;9.30;63.50;;;;;;5002161;28;19918;-90
2022/01/09 05:09:13;;;;;;;;;;;9.40;63.50;;;;;;5000100;28;19930;-90
2022/01/09 05:11:39;;;;;;;;;;;9.40;63.50;;;;;;5013927;28;19927;-90
2022/01/09 05:14:05;;;;;;;;;;;9.40;63.70;;;;;;5004356;28;19910;-90
2022/01/09 05:16:30;;;;;;;;;;;9.40;63.60;;;;;;4982053;28;19924;-90
2022/01/09 05:19:05;;;;;;;;;;;9.50;63.60;;;;;;5001227;28;19917;-90
2022/01/09 05:21:30;;;;;;;;;;;9.50;63.60;;;;;;5007923;28;19922;-90
2022/01/09 05:23:56;;;;;;;;;;;9.50;63.60;;;;;;4998813;28;19996;-90
2022/01/09 05:26:22;;;;;;;;;;;9.50;63.60;;;;;;5027261;28;19923;-90
2022/01/09 05:28:48;;;;;;;;;;;9.50;63.40;;;;;;5021136;28;19984;-90
2022/01/09 05:31:13;;;;;;;;;;;9.50;63.30;;;;;;5001680;28;19922;-90
2022/01/09 05:33:39;;;;;;;;;;;9.60;63.40;;;;;;5029721;28;20430;-90
2022/01/09 05:36:05;;;;;;;;;;;9.50;63.30;;;;;;5012989;28;19921;-90
2022/01/09 05:38:31;;;;;;;;;;;9.60;63.30;;;;;;5025934;28;19921;-90
2022/01/09 05:40:56;;;;;;;;;;;9.50;63.20;;;;;;5013243;28;20639;-90
2022/01/09 05:43:22;;;;;;;;;;;9.50;63.10;;;;;;5014971;28;19914;-90
2022/01/09 05:45:48;;;;;;;;;;;9.50;63.10;;;;;;4983766;28;19964;-90
2022/01/09 05:48:13;;;;;;;;;;;9.50;62.90;;;;;;5002373;28;19921;-89
2022/01/09 05:50:39;;;;;;;;;;;9.40;62.90;;;;;;5011885;28;19918;-90
2022/01/09 05:53:04;;;;;;;;;;;9.40;62.80;;;;;;5003009;28;19928;-90
2022/01/09 05:55:30;;;;;;;;;;;9.30;62.90;;;;;;5015451;28;19969;-90
2022/01/09 05:57:55;;;;;;;;;;;9.30;63.00;;;;;;5003834;28;19964;-90
2022/01/09 06:00:21;;;;;;;;;;;9.30;63.00;;;;;;4997122;28;19914;-90
2022/01/09 06:02:47;;;;;;;;;;;9.30;63.10;;;;;;4994629;28;20340;-91
2022/01/09 06:05:12;;;;;;;;;;;9.20;63.20;;;;;;4994458;28;20201;-90
2022/01/09 06:07:38;;;;;;;;;;;9.20;63.00;;;;;;5001420;28;19929;-90
2022/01/09 06:10:04;;;;;;;;;;;9.20;63.00;;;;;;4991416;28;19957;-90
2022/01/09 06:12:29;;;;;;;;;;;9.20;63.10;;;;;;5002440;28;19932;-90
2022/01/09 06:14:55;;;;;;;;;;;9.20;63.10;;;;;;4999589;28;20553;-91
2022/01/09 06:17:21;;;;;;;;;;;9.20;63.10;;;;;;4992267;28;20005;-91
2022/01/09 06:19:46;;;;;;;;;;;9.30;63.10;;;;;;5000984;28;19913;-91
2022/01/09 06:22:17;;;;;;;;;;;9.20;63.10;;;;;;5003443;28;19925;-89
2022/01/09 06:24:45;;;;;;;;;;;9.20;63.20;;;;;;5012700;28;19932;-88
2022/01/09 06:27:11;;;;;;;;;;;9.20;63.30;;;;;;4997209;28;19921;-89
2022/01/09 06:29:36;;;;;;;;;;;9.20;63.30;;;;;;5000565;28;20669;-91
2022/01/09 06:32:02;;;;;;;;;;;9.30;63.40;;;;;;5011429;28;19928;-91
2022/01/09 06:34:27;;;;;;;;;;;9.30;63.40;;;;;;4999852;28;20012;-90
2022/01/09 06:36:53;;;;;;;;;;;9.40;63.50;;;;;;5000532;28;20090;-91
2022/01/09 06:39:19;;;;;;;;;;;9.30;63.60;;;;;;5009913;28;19925;-91
2022/01/09 06:41:44;;;;;;;;;;;9.40;63.60;;;;;;5005228;28;19901;-90
2022/01/09 06:44:10;;;;;;;;;;;9.40;63.60;;;;;;4999798;28;19916;-91
2022/01/09 06:46:35;;;;;;;;;;;9.50;63.70;;;;;;5008397;28;19999;-91
2022/01/09 06:49:02;;;;;;;;;;;9.50;63.70;;;;;;5013357;28;20000;-90
2022/01/09 06:51:28;;;;;;;;;;;9.50;63.90;;;;;;5013822;28;19922;-90
2022/01/09 06:53:53;;;;;;;;;;;9.60;63.90;;;;;;4998291;28;19928;-90
2022/01/09 06:56:19;;;;;;;;;;;9.60;63.90;;;;;;5009600;28;20011;-90
2022/01/09 06:58:45;;;;;;;;;;;9.70;63.80;;;;;;5014458;28;20580;-91
2022/01/09 07:01:11;;;;;;;;;;;9.70;63.90;;;;;;5015139;28;19921;-90
2022/01/09 07:03:36;;;;;;;;;;;9.70;64.10;;;;;;5007473;28;19977;-91
2022/01/09 07:06:02;;;;;;;;;;;9.80;64.10;;;;;;5000541;28;19929;-90
2022/01/09 07:08:29;;;;;;;;;;;9.80;64.10;;;;;;5004878;28;19944;-90
2022/01/09 07:10:55;;;;;;;;;;;9.90;64.10;;;;;;5030260;28;19921;-90
2022/01/09 07:13:20;;;;;;;;;;;9.90;64.10;;;;;;5018983;28;19936;-91
2022/01/09 07:15:46;;;;;;;;;;;10.00;64.10;;;;;;5027420;28;20372;-91
2022/01/09 07:18:13;;;;;;;;;;;10.00;64.00;;;;;;5001261;28;19952;-91
2022/01/09 07:20:39;;;;;;;;;;;10.10;63.90;;;;;;5017736;28;19913;-91
2022/01/09 07:23:06;;;;;;;;;;;10.10;63.80;;;;;;5015933;28;19920;-91
2022/01/09 07:25:31;;;;;;;;;;;10.20;63.70;;;;;;5019680;28;19910;-91
2022/01/09 07:27:58;;;;;;;;;;;10.20;63.70;;;;;;5017745;28;19917;-91
2022/01/09 07:30:26;;;;;;;;;;;10.20;63.70;;;;;;5017431;28;19918;-91
2022/01/09 07:32:51;;;;;;;;;;;10.20;63.70;;;;;;5000680;28;19929;-90
2022/01/09 07:35:18;;;;;;;;;;;10.30;63.70;;;;;;4995012;28;19984;-91
2022/01/09 07:37:44;;;;;;;;;;;10.30;63.70;;;;;;4983151;28;19921;-90
2022/01/09 07:40:10;;;;;;;;;;;10.40;63.70;;;;;;5101778;23;20019;-90
2022/01/09 07:42:36;;;;;;;;;;;10.40;63.70;;;;;;4984217;28;19921;-91
2022/01/09 07:45:06;;;;;;;;;;;10.50;63.80;;;;;;4965153;28;19922;-90
2022/01/09 07:47:32;;;;;;;;;;;10.50;63.80;;;;;;5090757;23;19951;-90
2022/01/09 07:49:58;;;;;;;;;;;10.60;63.80;;;;;;5037261;28;19921;-90
2022/01/09 07:52:23;;;;;;;;;;;10.60;63.90;;;;;;5039051;28;19921;-90
2022/01/09 07:54:50;;;;;;;;;;;10.70;63.90;;;;;;5025275;28;20399;-90
2022/01/09 07:57:17;;;;;;;;;;;10.70;64.00;;;;;;5018394;28;19913;-89
2022/01/09 07:59:42;;;;;;;;;;;10.70;64.00;;;;;;5014355;28;19925;-90
2022/01/09 08:02:09;;;;;;;;;;;10.80;64.10;;;;;;5108833;23;19924;-90
2022/01/09 08:04:34;;;;;;;;;;;10.80;64.20;;;;;;4979502;28;19922;-90
2022/01/09 08:07:00;;;;;;;;;;;10.80;64.20;;;;;;4986968;28;19914;-90
2022/01/09 08:09:26;;;;;;;;;;;10.90;64.20;;;;;;4979916;28;19928;-90
2022/01/09 08:11:52;;;;;;;;;;;11.00;64.30;;;;;;4977421;28;19913;-90
2022/01/09 08:14:17;;;;;;;;;;;11.00;64.40;;;;;;4980517;28;19914;-91
2022/01/09 08:16:43;;;;;;;;;;;11.00;64.40;;;;;;4970755;28;19910;-90
2022/01/09 08:19:09;;;;;;;;;;;11.00;64.50;;;;;;4970471;28;19914;-90
2022/01/09 08:21:34;;;;;;;;;;;11.10;64.60;;;;;;4987039;28;19914;-90
2022/01/09 08:24:00;;;;;;;;;;;11.20;64.60;;;;;;4987079;28;20935;-90
2022/01/09 08:26:28;;;;;;;;;;;11.20;64.60;;;;;;4993071;28;21740;-90
2022/01/09 08:28:54;;;;;;;;;;;11.30;64.60;;;;;;4974807;28;19926;-90
2022/01/09 08:31:20;;;;;;;;;;;11.30;64.60;;;;;;4993938;28;20005;-90
2022/01/09 08:33:46;;;;;;;;;;;11.30;64.70;;;;;;4973426;28;19921;-90
2022/01/09 08:36:11;;;;;;;;;;;11.40;64.60;;;;;;4984021;28;20267;-90
2022/01/09 08:38:37;;;;;;;;;;;11.40;64.60;;;;;;4992033;28;19914;-90
2022/01/09 08:41:03;;;;;;;;;;;11.40;64.60;;;;;;4983251;28;19963;-90
2022/01/09 08:43:31;;;;;;;;;;;11.50;64.70;;;;;;4988853;28;20448;-90
2022/01/09 08:45:58;;;;;;;;;;;11.50;64.60;;;;;;4983436;28;19957;-90
2022/01/09 08:48:27;;;;;;;;;;;11.50;64.40;;;;;;4984610;28;19917;-90
2022/01/09 08:50:55;;;;;;;;;;;11.50;64.50;;;;;;4963207;28;19922;-90
2022/01/09 08:53:22;;;;;;;;;;;11.60;64.50;;;;;;4970991;28;19957;-90
2022/01/09 08:55:48;;;;;;;;;;;11.60;64.40;;;;;;4957680;28;19920;-90
2022/01/09 08:58:14;;;;;;;;;;;11.60;64.30;;;;;;4997890;28;20004;-90
2022/01/09 09:00:39;;;;;;;;;;;11.60;64.40;;;;;;4970290;28;19921;-90
2022/01/09 09:03:05;;;;;;;;;;;11.60;64.40;;;;;;4973575;28;20428;-90
2022/01/09 09:05:31;;;;;;;;;;;11.60;64.30;;;;;;5003364;28;20360;-90
2022/01/09 09:07:58;;;;;;;;;;;11.60;64.40;;;;;;5001194;28;19918;-90
2022/01/09 09:10:24;;;;;;;;;;;11.70;64.30;;;;;;4978071;28;19942;-90
2022/01/09 09:12:49;;;;;;;;;;;11.70;64.30;;;;;;4981314;28;19937;-91
2022/01/09 09:15:15;;;;;;;;;;;11.70;64.20;;;;;;4981071;28;20235;-89
2022/01/09 09:17:40;;;;;;;;;;;11.70;64.10;;;;;;4983161;28;19933;-90
2022/01/09 09:20:06;;;;;;;;;;;11.70;64.20;;;;;;4976340;28;19920;-90
2022/01/09 09:22:33;;;;;;;;;;;11.70;64.20;;;;;;4970842;28;19929;-90
2022/01/09 09:24:59;;;;;;;;;;;11.80;64.30;;;;;;4992140;28;19915;-90
2022/01/09 09:27:30;;;;;;;;;;;11.80;64.30;;;;;;4989956;28;19960;-90
2022/01/09 09:29:58;;;;;;;;;;;11.80;64.20;;;;;;4970419;28;19921;-90
2022/01/09 09:32:24;;;;;;;;;;;11.80;64.20;;;;;;4978753;28;19918;-90
2022/01/09 09:34:50;;;;;;;;;;;11.80;64.10;;;;;;4972477;28;19921;-90
2022/01/09 09:37:15;;;;;;;;;;;11.80;64.20;;;;;;4974889;28;19918;-90
2022/01/09 09:39:41;;;;;;;;;;;11.80;64.20;;;;;;4976334;28;19953;-90
2022/01/09 09:42:08;;;;;;;;;;;11.80;64.20;;;;;;4968464;28;19956;-90
2022/01/09 09:47:17;;;;;;;;;;;11.80;64.30;;;;;;5021097;23;19968;-89
2022/01/09 09:49:43;;;;;;;;;;;11.90;64.30;;;;;;4983456;28;19918;-90
2022/01/09 09:52:09;;;;;;;;;;;11.90;64.30;;;;;;4998836;23;19935;-91
2022/01/09 09:54:35;;;;;;;;;;;12.00;64.20;;;;;;5037725;28;20417;-88
2022/01/09 09:57:01;;;;;;;;;;;12.00;64.20;;;;;;5017415;28;20219;-89
2022/01/09 09:59:34;;;;;;;;;;;12.00;64.10;;;;;;5013922;28;19913;-91
2022/01/09 10:01:59;;;;;;;;;;;12.10;64.20;;;;;;5007880;28;19929;-90
2022/01/09 10:04:27;;;;;;;;;;;12.10;64.30;;;;;;5011888;28;20006;-89
2022/01/09 10:06:53;;;;;;;;;;;12.10;64.30;;;;;;5018246;28;19957;-88
2022/01/09 10:09:20;;;;;;;;;;;12.20;64.10;;;;;;5008530;28;19926;-91
2022/01/09 10:11:45;;;;;;;;;;;12.20;64.10;;;;;;4996082;28;19953;-91
2022/01/09 10:14:14;;;;;;;;;;;12.20;64.10;;;;;;5002039;28;19928;-91
2022/01/09 10:16:40;;;;;;;;;;;12.20;64.00;;;;;;5006902;28;20033;-89
2022/01/09 10:21:34;;;;;;;;;;;12.20;64.00;;;;;;5134884;23;19930;-90
2022/01/09 10:24:02;;;;;;;;;;;12.20;64.00;;;;;;5027210;28;20256;-89
2022/01/09 10:26:28;;;;;;;;;;;12.30;64.00;;;;;;5008448;28;19917;-89
2022/01/09 10:28:55;;;;;;;;;;;12.30;64.00;;;;;;5023499;28;19967;-89
2022/01/09 10:31:21;;;;;;;;;;;12.30;63.80;;;;;;5031156;28;19918;-90
2022/01/09 10:33:59;;;;;;;;;;;12.30;63.90;;;;;;5006702;28;20488;-89
2022/01/09 10:36:33;;;;;;;;;;;12.30;63.80;;;;;;5015435;28;19921;-90
2022/01/09 10:39:02;;;;;;;;;;;12.30;63.90;;;;;;5017429;28;19963;-90
2022/01/09 10:41:45;;;;;;;;;;;12.30;64.00;;;;;;5009932;28;20499;-91
2022/01/09 10:44:18;;;;;;;;;;;12.30;64.00;;;;;;5015427;28;19913;-90
2022/01/09 10:46:54;;;;;;;;;;;12.30;63.90;;;;;;5037042;28;19971;-89
2022/01/09 10:49:20;;;;;;;;;;;12.30;63.90;;;;;;5023295;28;19921;-90
2022/01/09 10:51:45;;;;;;;;;;;12.30;63.90;;;;;;5027827;28;20692;-89
2022/01/09 10:54:26;;;;;;;;;;;12.30;63.80;;;;;;5028325;28;19936;-89
2022/01/09 10:57:07;;;;;;;;;;;12.30;63.80;;;;;;5021909;28;19948;-90
2022/01/09 10:59:33;;;;;;;;;;;12.20;63.70;;;;;;5019887;28;19961;-90
2022/01/09 11:02:00;;;;;;;;;;;12.20;63.80;;;;;;5022449;28;19969;-90
2022/01/09 11:04:25;;;;;;;;;;;12.10;63.90;;;;;;5024661;28;19935;-90
2022/01/09 11:06:51;;;;;;;;;;;12.00;63.80;;;;;;5038568;28;19984;-90
2022/01/09 11:09:17;;;;;;;;;;;12.00;63.80;;;;;;5039808;28;19928;-90
2022/01/09 11:11:46;;;;;;;;;;;12.00;63.90;;;;;;5003073;28;19925;-91
2022/01/09 11:14:16;;;;;;;;;;;12.00;64.10;;;;;;5000835;28;19913;-90
2022/01/09 11:16:51;;;;;;;;;;;12.00;64.10;;;;;;5028402;28;20518;-89
2022/01/09 11:19:17;;;;;;;;;;;12.00;64.00;;;;;;5019194;28;19920;-90
2022/01/09 11:21:47;;;;;;;;;;;12.00;63.90;;;;;;5015055;28;20499;-90
2022/01/09 11:24:31;;;;;;;;;;;12.00;64.00;;;;;;5002258;28;19919;-90
2022/01/09 11:26:59;;;;;;;;;;;12.00;64.10;;;;;;5017612;28;19964;-90
2022/01/09 11:29:44;;;;;;;;;;;11.90;64.10;;;;;;5021797;28;19976;-89
2022/01/09 11:32:19;;;;;;;;;;;11.90;64.10;;;;;;4978252;28;19921;-90
2022/01/09 11:35:11;;;;;;;;;;;11.90;64.10;;;;;;5021157;28;19952;-90
2022/01/09 11:37:38;;;;;;;;;;;11.90;64.10;;;;;;5008525;28;19955;-92
2022/01/09 11:40:04;;;;;;;;;;;11.90;64.10;;;;;;5005865;28;19940;-90
2022/01/09 11:42:30;;;;;;;;;;;11.80;64.00;;;;;;5019586;28;20288;-92
2022/01/09 11:44:56;;;;;;;;;;;11.80;64.00;;;;;;5002544;28;19932;-90
2022/01/09 11:47:23;;;;;;;;;;;11.90;64.00;;;;;;5013379;28;19913;-89
2022/01/09 11:49:49;;;;;;;;;;;11.80;64.10;;;;;;5000821;28;19928;-90
2022/01/09 11:52:15;;;;;;;;;;;11.90;64.20;;;;;;5000276;28;19913;-90
2022/01/09 11:54:54;;;;;;;;;;;11.90;64.10;;;;;;5003078;28;19917;-91
2022/01/09 11:57:34;;;;;;;;;;;11.90;64.10;;;;;;5017772;28;19909;-90
2022/01/09 12:00:00;;;;;;;;;;;11.90;64.10;;;;;;5003082;28;19951;-90
2022/01/09 12:02:28;;;;;;;;;;;12.00;64.10;;;;;;5008369;28;19918;-90
2022/01/09 12:04:54;;;;;;;;;;;12.00;64.10;;;;;;5023849;28;20384;-90
2022/01/09 12:07:33;;;;;;;;;;;12.10;64.00;;;;;;5003057;28;20362;-90
2022/01/09 12:10:00;;;;;;;;;;;12.20;63.90;;;;;;4999358;28;20621;-90
2022/01/09 12:12:26;;;;;;;;;;;12.30;63.80;;;;;;5002716;28;20280;-90
2022/01/09 12:14:54;;;;;;;;;;;12.30;63.80;;;;;;5020155;28;19926;-90
2022/01/09 12:17:26;;;;;;;;;;;12.40;63.70;;;;;;5003318;28;19940;-91
2022/01/09 12:20:05;;;;;;;;;;;12.50;63.70;;;;;;5018242;28;20000;-90
2022/01/09 12:22:47;;;;;;;;;;;12.60;63.80;;;;;;5000774;28;19917;-91
2022/01/09 12:25:22;;;;;;;;;;;12.60;63.70;;;;;;5005162;28;19924;-90
2022/01/09 12:27:54;;;;;;;;;;;12.60;63.60;;;;;;4999246;28;19936;-90
2022/01/09 12:30:41;;;;;;;;;;;12.60;63.60;;;;;;5021272;28;19921;-90
2022/01/09 12:33:22;;;;;;;;;;;12.60;63.60;;;;;;5004998;28;19948;-90
2022/01/09 12:35:53;;;;;;;;;;;12.50;63.40;;;;;;5001687;28;19917;-90
2022/01/09 12:38:20;;;;;;;;;;;12.50;63.40;;;;;;5014184;28;19917;-90
2022/01/09 12:40:46;;;;;;;;;;;12.50;63.50;;;;;;5017603;28;19925;-90
2022/01/09 12:43:13;;;;;;;;;;;12.40;63.40;;;;;;5004609;28;19937;-90
2022/01/09 12:45:43;;;;;;;;;;;12.40;63.50;;;;;;5001983;28;19952;-90
2022/01/09 12:48:17;;;;;;;;;;;12.40;63.70;;;;;;5013254;28;19933;-90
2022/01/09 12:50:44;;;;;;;;;;;12.40;63.40;;;;;;5013966;28;19930;-91
2022/01/09 12:53:23;;;;;;;;;;;12.30;63.50;;;;;;5009338;28;20311;-90
2022/01/09 12:56:12;;;;;;;;;;;12.30;63.70;;;;;;5050913;23;19930;-91
2022/01/09 12:58:42;;;;;;;;;;;12.40;63.80;;;;;;4997592;28;19913;-91
2022/01/09 13:01:12;;;;;;;;;;;12.50;63.90;;;;;;5008830;28;20434;-90
2022/01/09 13:03:39;;;;;;;;;;;12.50;63.80;;;;;;4993025;28;19964;-90
2022/01/09 13:08:34;;;;;;;;;;;12.60;63.70;;;;;;5040076;23;19933;-90
2022/01/09 13:11:03;;;;;;;;;;;12.60;63.80;;;;;;5022417;28;19918;-90
2022/01/09 13:13:30;;;;;;;;;;;12.60;63.50;;;;;;4996742;28;19993;-90
2022/01/09 13:15:57;;;;;;;;;;;12.70;63.50;;;;;;4995433;28;20013;-91
2022/01/09 13:18:42;;;;;;;;;;;12.70;63.30;;;;;;5009617;28;20704;-91
2022/01/09 13:21:08;;;;;;;;;;;12.70;63.40;;;;;;4997200;28;20285;-91
2022/01/09 13:23:36;;;;;;;;;;;12.70;63.50;;;;;;5017129;28;20419;-91
2022/01/09 13:26:03;;;;;;;;;;;12.70;63.40;;;;;;4997788;28;20004;-91
2022/01/09 13:28:31;;;;;;;;;;;12.80;63.30;;;;;;4994926;28;19925;-91
2022/01/09 13:30:59;;;;;;;;;;;12.70;63.20;;;;;;4985101;28;20288;-91
2022/01/09 13:33:27;;;;;;;;;;;12.80;63.00;;;;;;4993652;28;19916;-91
2022/01/09 13:35:53;;;;;;;;;;;12.70;63.10;;;;;;4999978;28;20006;-91
2022/01/09 13:38:19;;;;;;;;;;;12.70;63.20;;;;;;5017804;28;20586;-91
2022/01/09 13:40:46;;;;;;;;;;;12.80;63.50;;;;;;5000399;28;19917;-90
2022/01/09 13:43:13;;;;;;;;;;;12.90;63.40;;;;;;5000621;28;19948;-91
2022/01/09 13:45:41;;;;;;;;;;;12.90;63.50;;;;;;5023467;28;19936;-90
2022/01/09 13:48:08;;;;;;;;;;;13.00;63.50;;;;;;4988269;28;19956;-91
2022/01/09 13:50:34;;;;;;;;;;;13.00;63.30;;;;;;4989583;28;19959;-91
2022/01/09 13:55:36;;;;;;;;;;;13.10;63.10;;;;;;5112525;23;19967;-90
2022/01/09 13:58:09;;;;;;;;;;;13.10;63.20;;;;;;5037487;28;19909;-90
2022/01/09 14:00:37;;;;;;;;;;;13.20;63.10;;;;;;5034925;28;19917;-90
2022/01/09 14:03:13;;;;;;;;;;;13.10;63.20;;;;;;5030522;28;19975;-91
2022/01/09 14:05:44;;;;;;;;;;;13.20;63.00;;;;;;5027015;28;19928;-90
2022/01/09 14:08:15;;;;;;;;;;;13.20;63.20;;;;;;5043783;23;20562;-91
2022/01/09 14:10:46;;;;;;;;;;;13.20;63.10;;;;;;4963239;28;20060;-91
2022/01/09 14:15:52;;;;;;;;;;;13.20;63.10;;;;;;5076845;23;19957;-89
2022/01/09 14:18:27;;;;;;;;;;;13.20;63.20;;;;;;5017700;28;19920;-91
2022/01/09 14:21:03;;;;;;;;;;;13.20;63.10;;;;;;5004456;28;19931;-90
2022/01/09 14:23:35;;;;;;;;;;;13.20;63.10;;;;;;5001344;28;20000;-91
2022/01/09 14:26:09;;;;;;;;;;;13.20;63.00;;;;;;5007919;28;20012;-90
2022/01/09 14:28:44;;;;;;;;;;;13.10;62.80;;;;;;5009735;28;20008;-89
2022/01/09 14:31:15;;;;;;;;;;;13.00;63.10;;;;;;5009440;28;19913;-90
2022/01/09 14:33:48;;;;;;;;;;;13.00;62.80;;;;;;5001822;28;19988;-90
2022/01/09 14:36:20;;;;;;;;;;;13.00;62.80;;;;;;5019247;28;19913;-90
2022/01/09 14:41:26;;;;;;;;;;;12.90;62.90;;;;;;4980040;28;19933;-90